createdAt,value
2022-12-04T00:02:18.381Z,2.63
2022-12-04T00:05:20.145Z,2.63
2022-12-04T00:08:21.869Z,3.13
2022-12-04T00:11:27.546Z,3.17
2022-12-04T00:14:29.310Z,2.72
2022-12-04T00:17:30.947Z,3.08
2022-12-04T00:20:32.584Z,2.97
2022-12-04T00:23:34.707Z,3.03
2022-12-04T00:26:38.155Z,3.35
2022-12-04T00:29:39.870Z,3.20
2022-12-04T00:32:41.535Z,2.85
2022-12-04T00:35:43.238Z,1.77
2022-12-04T00:38:45.057Z,2.30
2022-12-04T00:41:47.997Z,2.78
2022-12-04T00:44:49.782Z,3.40
2022-12-04T00:47:51.509Z,2.55
2022-12-04T00:50:54.186Z,2.65
2022-12-04T00:53:55.918Z,2.28
2022-12-04T00:56:59.005Z,2.72
2022-12-04T01:00:00.692Z,2.80
2022-12-04T01:03:02.736Z,2.70
2022-12-04T01:06:05.387Z,2.47
2022-12-04T01:09:07.068Z,2.97
2022-12-04T01:12:10.094Z,2.28
2022-12-04T01:15:11.891Z,2.50
2022-12-04T01:18:14.813Z,2.90
2022-12-04T01:21:17.309Z,2.75
2022-12-04T01:24:18.995Z,2.90
2022-12-04T01:27:21.948Z,2.45
2022-12-04T01:30:23.687Z,2.72
2022-12-04T01:33:25.318Z,2.90
2022-12-04T01:36:28.291Z,2.95
2022-12-04T01:39:29.945Z,2.90
2022-12-04T01:42:32.990Z,2.90
2022-12-04T01:45:41.176Z,2.72
2022-12-04T01:48:46.454Z,3.40
2022-12-04T01:51:51.643Z,2.92
2022-12-04T01:54:59.068Z,3.08
2022-12-04T01:58:02.974Z,2.42
2022-12-04T02:01:08.869Z,2.72
2022-12-04T02:04:10.988Z,2.92
2022-12-04T02:07:12.814Z,2.85
2022-12-04T02:10:17.057Z,3.53
2022-12-04T02:13:27.013Z,2.25
2022-12-04T02:16:36.732Z,3.17
2022-12-04T02:20:11.222Z,2.92
2022-12-04T02:23:28.437Z,2.15
2022-12-04T02:26:40.776Z,3.10
2022-12-04T02:29:51.256Z,2.63
2022-12-04T02:33:01.723Z,2.85
2022-12-04T02:36:08.378Z,2.90
2022-12-04T02:39:19.236Z,2.92
2022-12-04T02:42:30.502Z,2.15
2022-12-04T02:45:40.149Z,3.63
2022-12-04T02:48:46.358Z,2.90
2022-12-04T02:51:49.843Z,2.28
2022-12-04T02:54:56.536Z,3.10
2022-12-04T02:58:02.739Z,3.17
2022-12-04T03:01:29.367Z,2.22
2022-12-04T03:04:31.689Z,2.95
2022-12-04T03:07:38.647Z,2.80
2022-12-04T03:10:46.193Z,3.00
2022-12-04T03:13:50.755Z,2.70
2022-12-04T03:16:59.340Z,2.85
2022-12-04T03:20:05.646Z,3.55
2022-12-04T03:23:12.416Z,2.63
2022-12-04T03:26:22.270Z,2.47
2022-12-04T03:29:33.288Z,2.88
2022-12-04T03:32:41.205Z,2.50
2022-12-04T03:35:48.695Z,2.58
2022-12-04T03:38:56.512Z,2.58
2022-12-04T03:42:02.175Z,2.05
2022-12-04T03:45:10.536Z,2.38
2022-12-04T03:48:22.969Z,2.65
2022-12-04T03:51:33.550Z,3.83
2022-12-04T03:54:40.915Z,2.33
2022-12-04T03:57:45.570Z,2.67
2022-12-04T04:00:50.780Z,2.92
2022-12-04T04:03:57.630Z,3.50
2022-12-04T04:07:04.667Z,3.17
2022-12-04T04:10:13.918Z,2.65
2022-12-04T04:13:40.371Z,2.63
2022-12-04T04:17:06.348Z,1.92
2022-12-04T04:20:34.002Z,2.58
2022-12-04T04:23:59.073Z,3.00
2022-12-04T04:27:01.718Z,2.95
2022-12-04T04:30:04.288Z,3.08
2022-12-04T04:33:11.518Z,2.55
2022-12-04T04:36:21.929Z,2.53
2022-12-04T04:39:32.962Z,1.73
2022-12-04T04:42:40.414Z,2.42
2022-12-04T04:45:47.731Z,2.50
2022-12-04T04:48:52.589Z,2.53
2022-12-04T04:51:56.574Z,2.63
2022-12-04T04:55:00.306Z,2.15
2022-12-04T04:58:09.491Z,2.67
2022-12-04T05:01:13.967Z,2.42
2022-12-04T05:04:15.638Z,2.00
2022-12-04T05:07:18.675Z,2.05
2022-12-04T05:10:20.290Z,1.65
2022-12-04T05:13:22.108Z,2.60
2022-12-04T05:16:24.197Z,2.30
2022-12-04T05:19:44.585Z,2.10
2022-12-04T05:22:47.605Z,2.60
2022-12-04T05:25:49.652Z,2.03
2022-12-04T05:28:51.483Z,2.67
2022-12-04T05:31:53.055Z,1.35
2022-12-04T05:34:56.262Z,2.33
2022-12-04T05:37:59.179Z,1.80
2022-12-04T05:41:01.947Z,2.08
2022-12-04T05:44:04.028Z,2.03
2022-12-04T05:47:06.015Z,2.58
2022-12-04T05:50:09.994Z,1.80
2022-12-04T05:53:13.008Z,2.08
2022-12-04T05:56:14.638Z,1.60
2022-12-04T05:59:16.526Z,2.05
2022-12-04T06:02:18.268Z,1.38
2022-12-04T06:05:20.112Z,2.22
2022-12-04T06:08:23.018Z,2.55
2022-12-04T06:11:27.978Z,2.63
2022-12-04T06:14:31.030Z,2.25
2022-12-04T06:17:35.378Z,1.38
2022-12-04T06:20:37.174Z,1.58
2022-12-04T06:23:40.182Z,1.92
2022-12-04T06:27:04.042Z,1.92
2022-12-04T06:30:03.942Z,2.05
2022-12-04T06:33:05.607Z,1.80
2022-12-04T06:36:09.198Z,2.28
2022-12-04T06:39:18.347Z,2.05
2022-12-04T06:42:20.430Z,1.67
2022-12-04T06:45:22.207Z,1.60
2022-12-04T06:48:24.221Z,1.73
2022-12-04T06:51:28.378Z,1.65
2022-12-04T06:54:31.457Z,1.92
2022-12-04T06:57:33.367Z,2.10
2022-12-04T07:00:35.189Z,1.77
2022-12-04T07:03:39.074Z,1.95
2022-12-04T07:06:41.734Z,1.88
2022-12-04T07:09:46.714Z,1.77
2022-12-04T07:12:48.346Z,1.98
2022-12-04T07:15:49.973Z,2.10
2022-12-04T07:18:56.453Z,1.67
2022-12-04T07:21:58.101Z,1.75
2022-12-04T07:25:01.106Z,1.73
2022-12-04T07:28:02.743Z,2.00
2022-12-04T07:31:05.559Z,1.25
2022-12-04T07:34:07.338Z,1.33
2022-12-04T07:37:08.941Z,2.50
2022-12-04T07:40:13.578Z,2.15
2022-12-04T07:43:15.468Z,2.17
2022-12-04T07:46:19.644Z,2.20
2022-12-04T07:49:21.364Z,1.98
2022-12-04T07:52:23.140Z,1.95
2022-12-04T07:55:26.169Z,1.90
2022-12-04T07:58:27.855Z,2.50
2022-12-04T08:01:30.191Z,1.83
2022-12-04T08:04:32.212Z,1.58
2022-12-04T08:07:33.949Z,2.05
2022-12-04T08:10:39.803Z,2.20
2022-12-04T08:13:41.804Z,1.88
2022-12-04T08:16:48.184Z,2.60
2022-12-04T08:19:53.161Z,2.28
2022-12-04T08:22:54.975Z,2.83
2022-12-04T08:26:00.237Z,2.28
2022-12-04T08:32:05.330Z,2.53
2022-12-04T08:35:07.843Z,2.25
2022-12-04T08:38:09.480Z,1.70
2022-12-04T08:41:14.763Z,1.80
2022-12-04T08:47:17.935Z,1.58
2022-12-04T08:50:19.697Z,1.90
2022-12-04T08:53:22.386Z,1.50
2022-12-04T08:56:26.719Z,2.00
2022-12-04T08:59:28.379Z,1.75
2022-12-04T09:02:30.060Z,1.52
2022-12-04T09:05:31.785Z,2.10
2022-12-04T09:08:34.368Z,2.10
2022-12-04T09:11:37.346Z,2.67
2022-12-04T09:14:39.191Z,2.22
2022-12-04T09:17:40.866Z,2.30
2022-12-04T09:20:42.567Z,1.83
2022-12-04T09:23:45.099Z,2.65
2022-12-04T09:26:48.083Z,2.38
2022-12-04T09:29:49.845Z,1.95
2022-12-04T09:32:51.556Z,1.50
2022-12-04T09:35:53.539Z,2.08
2022-12-04T09:38:55.721Z,3.03
2022-12-04T09:42:19.738Z,2.45
2022-12-04T09:45:24.034Z,1.65
2022-12-04T09:48:33.182Z,1.80
2022-12-04T09:51:35.921Z,1.55
2022-12-04T09:54:42.533Z,1.65
2022-12-04T09:57:48.080Z,1.95
2022-12-04T10:00:52.438Z,2.72
2022-12-04T10:03:55.758Z,2.47
2022-12-04T10:10:17.390Z,1.90
2022-12-04T10:13:40.610Z,2.70
2022-12-04T10:17:04.852Z,3.60
2022-12-04T10:20:22.937Z,2.67
2022-12-04T10:23:37.962Z,3.03
2022-12-04T10:26:44.123Z,4.30
2022-12-04T10:29:51.841Z,2.85
2022-12-04T10:32:58.042Z,3.85
2022-12-04T10:36:00.889Z,3.35
2022-12-04T10:39:10.654Z,2.92
2022-12-04T10:42:23.933Z,3.58
2022-12-04T10:45:26.958Z,3.65
2022-12-04T10:48:34.563Z,2.95
2022-12-04T10:51:39.895Z,3.65
2022-12-04T10:54:48.300Z,4.40
2022-12-04T10:57:49.960Z,2.83
2022-12-04T11:01:03.388Z,2.80
2022-12-04T11:04:09.515Z,3.78
2022-12-04T11:07:20.888Z,3.42
2022-12-04T11:10:25.796Z,2.33
2022-12-04T11:13:28.171Z,3.10
2022-12-04T11:16:37.905Z,3.75
2022-12-04T11:19:39.671Z,3.25
2022-12-04T11:22:50.640Z,3.72
2022-12-04T11:25:59.388Z,3.17
2022-12-04T11:29:05.859Z,3.72
2022-12-04T11:32:21.709Z,3.53
2022-12-04T11:35:25.611Z,4.10
2022-12-04T11:38:28.990Z,3.83
2022-12-04T11:41:32.170Z,3.63
2022-12-04T11:44:35.800Z,3.00
2022-12-04T11:47:38.813Z,3.78
2022-12-04T11:50:47.684Z,3.90
2022-12-04T11:53:55.621Z,3.50
2022-12-04T11:57:10.046Z,4.22
2022-12-04T12:00:15.156Z,3.28
2022-12-04T12:03:25.146Z,4.07
2022-12-04T12:06:34.900Z,4.00
2022-12-04T12:09:45.929Z,3.85
2022-12-04T12:12:56.451Z,3.22
2022-12-04T12:16:03.301Z,2.80
2022-12-04T12:19:21.505Z,3.28
2022-12-04T12:22:39.736Z,3.50
2022-12-04T12:25:52.274Z,3.75
2022-12-04T12:29:10.268Z,3.42
2022-12-04T12:32:25.592Z,4.22
2022-12-04T12:35:33.194Z,3.10
2022-12-04T12:38:40.435Z,3.67
2022-12-04T12:41:46.782Z,4.10
2022-12-04T12:44:54.633Z,3.55
2022-12-04T12:48:00.684Z,4.32
2022-12-04T12:51:29.544Z,4.50
2022-12-04T12:54:41.162Z,3.50
2022-12-04T12:57:46.515Z,3.95
2022-12-04T13:03:58.330Z,5.03
2022-12-04T13:07:14.623Z,5.65
2022-12-04T13:10:20.656Z,4.15
2022-12-04T13:13:26.029Z,4.60
2022-12-04T13:19:43.177Z,4.75
2022-12-04T13:22:54.644Z,4.95
2022-12-04T13:26:04.986Z,4.07
2022-12-04T13:29:18.001Z,4.93
2022-12-04T13:32:53.429Z,3.63
2022-12-04T13:36:19.711Z,3.85
2022-12-04T13:39:42.695Z,4.05
2022-12-04T13:42:44.621Z,5.40
2022-12-04T13:45:48.556Z,4.97
2022-12-04T13:48:50.265Z,4.30
2022-12-04T13:51:52.781Z,4.13
2022-12-04T13:54:59.520Z,4.90
2022-12-04T13:58:04.193Z,4.53
2022-12-04T14:01:21.162Z,4.03
2022-12-04T14:04:26.176Z,4.60
2022-12-04T14:07:32.113Z,5.30
2022-12-04T14:10:36.930Z,3.83
2022-12-04T14:13:44.580Z,5.10
2022-12-04T14:16:49.393Z,4.25
2022-12-04T14:19:53.774Z,4.70
2022-12-04T14:23:06.741Z,4.78
2022-12-04T14:26:37.333Z,4.65
2022-12-04T14:29:49.590Z,4.72
2022-12-04T14:32:54.940Z,5.50
2022-12-04T14:36:01.632Z,3.97
2022-12-04T14:39:08.140Z,4.53
2022-12-04T14:42:14.705Z,4.25
2022-12-04T14:45:28.854Z,4.53
2022-12-04T14:48:37.575Z,4.75
2022-12-04T14:51:48.852Z,4.85
2022-12-04T14:54:56.893Z,4.93
2022-12-04T14:58:21.556Z,5.90
2022-12-04T15:01:28.989Z,4.85
2022-12-04T15:04:34.856Z,4.65
2022-12-04T15:07:37.161Z,5.28
2022-12-04T15:10:58.611Z,5.28
2022-12-04T15:14:11.661Z,5.32
2022-12-04T15:17:15.636Z,4.13
2022-12-04T15:20:19.700Z,4.95
2022-12-04T15:23:28.064Z,5.07
2022-12-04T15:26:30.019Z,4.05
2022-12-04T15:29:38.207Z,4.97
2022-12-04T15:32:40.048Z,4.50
2022-12-04T15:35:46.310Z,4.60
2022-12-04T15:38:50.173Z,5.13
2022-12-04T15:41:52.194Z,4.38
2022-12-04T15:45:02.946Z,4.80
2022-12-04T15:48:04.939Z,3.58
2022-12-04T15:51:08.493Z,4.03
2022-12-04T15:54:19.390Z,4.47
2022-12-04T15:57:26.604Z,5.38
2022-12-04T16:00:32.464Z,3.97
2022-12-04T16:03:39.400Z,4.63
2022-12-04T16:06:47.377Z,4.80
2022-12-04T16:09:59.556Z,4.38
2022-12-04T16:13:05.402Z,5.35
2022-12-04T16:16:13.701Z,4.43
2022-12-04T16:19:21.956Z,4.10
2022-12-04T16:22:25.107Z,4.90
2022-12-04T16:25:26.940Z,4.70
2022-12-04T16:28:28.621Z,4.05
2022-12-04T16:31:31.849Z,6.47
2022-12-04T16:34:33.520Z,5.07
2022-12-04T16:37:35.150Z,4.05
2022-12-04T16:40:36.779Z,4.10
2022-12-04T16:43:38.545Z,4.80
2022-12-04T16:46:42.468Z,4.75
2022-12-04T16:49:49.502Z,3.60
2022-12-04T16:52:51.781Z,4.22
2022-12-04T16:55:53.510Z,4.80
2022-12-04T16:58:55.133Z,3.47
2022-12-04T17:01:58.922Z,4.63
2022-12-04T17:05:01.018Z,4.78
2022-12-04T17:08:03.168Z,5.25
2022-12-04T17:11:05.105Z,4.78
2022-12-04T17:14:07.096Z,3.88
2022-12-04T17:17:10.091Z,4.20
2022-12-04T17:20:13.362Z,4.20
2022-12-04T17:23:15.143Z,5.03
2022-12-04T17:26:16.868Z,3.22
2022-12-04T17:29:18.596Z,4.60
2022-12-04T17:32:21.793Z,4.30
2022-12-04T17:35:23.448Z,3.65
2022-12-04T17:38:25.120Z,4.30
2022-12-04T17:41:26.871Z,3.70
2022-12-04T17:44:28.613Z,3.15
2022-12-04T17:47:31.665Z,4.53
2022-12-04T17:50:33.417Z,3.60
2022-12-04T17:53:35.294Z,3.70
2022-12-04T17:56:37.047Z,4.18
2022-12-04T17:59:38.839Z,3.63
2022-12-04T18:02:42.364Z,4.38
2022-12-04T18:05:44.082Z,3.22
2022-12-04T18:08:50.083Z,3.88
2022-12-04T18:11:52.201Z,4.32
2022-12-04T18:14:54.012Z,4.38
2022-12-04T18:17:56.953Z,4.63
2022-12-04T18:21:01.927Z,4.43
2022-12-04T18:24:04.956Z,4.80
2022-12-04T18:27:07.626Z,4.22
2022-12-04T18:30:09.950Z,3.55
2022-12-04T18:33:18.737Z,4.75
2022-12-04T18:36:23.055Z,3.67
2022-12-04T18:39:25.820Z,3.90
2022-12-04T18:42:27.450Z,3.55
2022-12-04T18:45:29.140Z,3.75
2022-12-04T18:48:32.932Z,3.80
2022-12-04T18:51:37.573Z,4.70
2022-12-04T18:54:39.222Z,4.95
2022-12-04T18:57:40.827Z,4.78
2022-12-04T19:00:42.850Z,4.35
2022-12-04T19:03:46.597Z,4.90
2022-12-04T19:06:50.244Z,4.10
2022-12-04T19:10:11.046Z,4.55
2022-12-04T19:13:13.029Z,3.95
2022-12-04T19:16:16.456Z,4.25
2022-12-04T19:19:19.584Z,4.47
2022-12-04T19:22:21.243Z,4.82
2022-12-04T19:25:22.809Z,4.60
2022-12-04T19:28:25.860Z,5.57
2022-12-04T19:31:29.457Z,4.88
2022-12-04T19:34:32.604Z,4.53
2022-12-04T19:37:39.624Z,3.88
2022-12-04T19:40:43.280Z,4.85
2022-12-04T19:43:46.707Z,4.30
2022-12-04T19:46:48.413Z,6.20
2022-12-04T19:49:51.506Z,4.18
2022-12-04T19:52:53.221Z,3.95
2022-12-04T19:55:54.864Z,5.65
2022-12-04T19:58:58.254Z,6.45
2022-12-04T20:02:00.132Z,5.22
2022-12-04T20:05:03.457Z,5.47
2022-12-04T20:11:11.584Z,6.18
2022-12-04T20:14:13.545Z,5.68
2022-12-04T20:17:15.223Z,4.90
2022-12-04T20:20:18.459Z,5.40
2022-12-04T20:23:20.184Z,4.93
2022-12-04T20:26:24.875Z,5.80
2022-12-04T20:29:26.773Z,5.70
2022-12-04T20:32:28.381Z,4.72
2022-12-04T20:35:31.447Z,4.07
2022-12-04T20:38:33.158Z,4.72
2022-12-04T20:41:35.295Z,6.40
2022-12-04T20:44:37.059Z,6.10
2022-12-04T20:47:39.406Z,5.00
2022-12-04T20:50:45.901Z,5.63
2022-12-04T20:53:49.671Z,5.82
2022-12-04T20:56:53.550Z,5.35
2022-12-04T20:59:55.667Z,5.45
2022-12-04T21:02:57.878Z,5.45
2022-12-04T21:06:00.984Z,5.90
2022-12-04T21:09:05.716Z,5.60
2022-12-04T21:12:28.120Z,4.97
2022-12-04T21:15:59.056Z,6.00
2022-12-04T21:19:01.503Z,5.57
2022-12-04T21:22:04.759Z,4.32
2022-12-04T21:25:09.286Z,5.75
2022-12-04T21:28:11.389Z,5.80
2022-12-04T21:31:13.490Z,5.18
2022-12-04T21:34:17.013Z,5.25
2022-12-04T21:37:20.077Z,5.65
2022-12-04T21:40:21.691Z,6.65
2022-12-04T21:43:23.469Z,5.72
2022-12-04T21:46:25.187Z,5.53
2022-12-04T21:49:27.096Z,4.82
2022-12-04T21:52:30.403Z,5.50
2022-12-04T21:55:32.057Z,6.95
2022-12-04T21:58:34.734Z,5.03
2022-12-04T22:01:37.358Z,5.05
2022-12-04T22:04:39.484Z,6.07
2022-12-04T22:07:42.511Z,6.03
2022-12-04T22:10:46.199Z,4.95
2022-12-04T22:13:47.844Z,5.43
2022-12-04T22:16:50.520Z,6.93
2022-12-04T22:19:52.171Z,5.25
2022-12-04T22:22:55.278Z,8.15
2022-12-04T22:26:04.146Z,5.68
2022-12-04T22:29:27.268Z,5.97
2022-12-04T22:32:28.061Z,5.18
2022-12-04T22:35:29.747Z,5.10
2022-12-04T22:38:32.872Z,5.57
2022-12-04T22:41:35.290Z,6.07
2022-12-04T22:44:36.894Z,5.38
2022-12-04T22:47:38.758Z,6.10
2022-12-04T22:50:40.412Z,6.05
2022-12-04T22:53:45.445Z,5.00
2022-12-04T22:56:47.195Z,6.03
2022-12-04T22:59:49.092Z,5.68
2022-12-04T23:02:50.795Z,5.00
2022-12-04T23:05:52.565Z,5.18
2022-12-04T23:08:56.904Z,5.47
2022-12-04T23:11:58.568Z,5.25
2022-12-04T23:15:00.210Z,6.07
2022-12-04T23:18:01.850Z,5.03
2022-12-04T23:21:05.736Z,5.35
2022-12-04T23:24:09.527Z,4.93
2022-12-04T23:27:11.135Z,5.63
2022-12-04T23:30:13.059Z,5.68
2022-12-04T23:33:14.681Z,5.32
2022-12-04T23:36:16.835Z,6.07
2022-12-04T23:39:19.819Z,5.53
2022-12-04T23:42:21.506Z,4.53
2022-12-04T23:45:23.145Z,5.32
2022-12-04T23:48:25.197Z,6.00
2022-12-04T23:51:27.335Z,5.65
2022-12-04T23:54:34.836Z,5.07
2022-12-04T23:57:36.401Z,5.03
